sensor_id;sensor_type;location;lat;lon;timestamp;P1;durP1;ratioP1;P2;durP2;ratioP2
23449;SDS011;11897;45.438;12.128;2023-05-07T00:01:13;9.23;;;5.00;;
23449;SDS011;11897;45.438;12.128;2023-05-07T00:03:41;8.97;;;5.90;;
23449;SDS011;11897;45.438;12.128;2023-05-07T00:06:08;9.47;;;5.40;;
23449;SDS011;11897;45.438;12.128;2023-05-07T00:08:35;12.93;;;5.63;;
23449;SDS011;11897;45.438;12.128;2023-05-07T00:11:04;9.43;;;5.53;;
23449;SDS011;11897;45.438;12.128;2023-05-07T00:13:31;9.77;;;6.07;;
23449;SDS011;11897;45.438;12.128;2023-05-07T00:16:00;9.07;;;5.77;;
23449;SDS011;11897;45.438;12.128;2023-05-07T00:18:28;9.33;;;6.13;;
23449;SDS011;11897;45.438;12.128;2023-05-07T00:20:55;12.70;;;7.17;;
23449;SDS011;11897;45.438;12.128;2023-05-07T00:23:22;10.17;;;5.47;;
23449;SDS011;11897;45.438;12.128;2023-05-07T00:25:50;9.67;;;6.47;;
23449;SDS011;11897;45.438;12.128;2023-05-07T00:28:16;12.23;;;7.33;;
23449;SDS011;11897;45.438;12.128;2023-05-07T00:30:43;9.40;;;5.83;;
23449;SDS011;11897;45.438;12.128;2023-05-07T00:33:10;9.87;;;6.27;;
23449;SDS011;11897;45.438;12.128;2023-05-07T00:35:38;9.23;;;6.00;;
23449;SDS011;11897;45.438;12.128;2023-05-07T00:38:04;10.03;;;6.83;;
23449;SDS011;11897;45.438;12.128;2023-05-07T00:40:31;12.67;;;6.90;;
23449;SDS011;11897;45.438;12.128;2023-05-07T00:42:57;8.73;;;5.80;;
23449;SDS011;11897;45.438;12.128;2023-05-07T00:45:25;11.53;;;6.80;;
23449;SDS011;11897;45.438;12.128;2023-05-07T00:47:53;10.73;;;6.53;;
23449;SDS011;11897;45.438;12.128;2023-05-07T00:50:20;13.03;;;6.80;;
23449;SDS011;11897;45.438;12.128;2023-05-07T00:52:48;10.80;;;7.23;;
23449;SDS011;11897;45.438;12.128;2023-05-07T00:55:15;11.23;;;6.83;;
23449;SDS011;11897;45.438;12.128;2023-05-07T00:57:42;11.17;;;6.77;;
23449;SDS011;11897;45.438;12.128;2023-05-07T01:00:09;11.23;;;6.97;;
23449;SDS011;11897;45.438;12.128;2023-05-07T01:02:37;15.83;;;7.47;;
23449;SDS011;11897;45.438;12.128;2023-05-07T01:05:09;16.40;;;8.80;;
23449;SDS011;11897;45.438;12.128;2023-05-07T01:07:37;12.20;;;7.60;;
23449;SDS011;11897;45.438;12.128;2023-05-07T01:10:07;12.50;;;7.87;;
23449;SDS011;11897;45.438;12.128;2023-05-07T01:12:35;13.07;;;7.87;;
23449;SDS011;11897;45.438;12.128;2023-05-07T01:15:03;17.60;;;7.70;;
23449;SDS011;11897;45.438;12.128;2023-05-07T01:17:32;13.03;;;6.83;;
23449;SDS011;11897;45.438;12.128;2023-05-07T01:19:59;13.90;;;7.80;;
23449;SDS011;11897;45.438;12.128;2023-05-07T01:22:29;13.97;;;8.30;;
23449;SDS011;11897;45.438;12.128;2023-05-07T01:24:57;12.73;;;7.77;;
23449;SDS011;11897;45.438;12.128;2023-05-07T01:27:26;10.97;;;6.93;;
23449;SDS011;11897;45.438;12.128;2023-05-07T01:29:53;10.77;;;6.83;;
23449;SDS011;11897;45.438;12.128;2023-05-07T01:32:23;14.90;;;7.87;;
23449;SDS011;11897;45.438;12.128;2023-05-07T01:34:50;13.00;;;7.33;;
23449;SDS011;11897;45.438;12.128;2023-05-07T01:37:16;12.00;;;7.43;;
23449;SDS011;11897;45.438;12.128;2023-05-07T01:39:44;13.10;;;7.67;;
23449;SDS011;11897;45.438;12.128;2023-05-07T01:42:11;12.67;;;7.27;;
23449;SDS011;11897;45.438;12.128;2023-05-07T01:44:38;9.43;;;6.50;;
23449;SDS011;11897;45.438;12.128;2023-05-07T01:47:05;13.83;;;6.63;;
23449;SDS011;11897;45.438;12.128;2023-05-07T01:49:32;8.63;;;5.60;;
23449;SDS011;11897;45.438;12.128;2023-05-07T01:51:59;10.07;;;6.53;;
23449;SDS011;11897;45.438;12.128;2023-05-07T01:54:26;8.60;;;5.27;;
23449;SDS011;11897;45.438;12.128;2023-05-07T01:56:56;9.87;;;6.20;;
23449;SDS011;11897;45.438;12.128;2023-05-07T01:59:23;10.70;;;6.50;;
23449;SDS011;11897;45.438;12.128;2023-05-07T02:01:50;8.90;;;5.67;;
23449;SDS011;11897;45.438;12.128;2023-05-07T02:04:17;8.67;;;5.53;;
23449;SDS011;11897;45.438;12.128;2023-05-07T02:06:43;11.90;;;6.97;;
23449;SDS011;11897;45.438;12.128;2023-05-07T02:09:12;10.93;;;6.73;;
23449;SDS011;11897;45.438;12.128;2023-05-07T02:11:42;13.90;;;7.97;;
23449;SDS011;11897;45.438;12.128;2023-05-07T02:14:10;11.80;;;7.67;;
23449;SDS011;11897;45.438;12.128;2023-05-07T02:16:37;17.63;;;8.83;;
23449;SDS011;11897;45.438;12.128;2023-05-07T02:19:04;14.17;;;8.37;;
23449;SDS011;11897;45.438;12.128;2023-05-07T02:21:30;13.37;;;7.67;;
23449;SDS011;11897;45.438;12.128;2023-05-07T02:23:57;15.63;;;7.93;;
23449;SDS011;11897;45.438;12.128;2023-05-07T02:26:24;15.80;;;8.00;;
23449;SDS011;11897;45.438;12.128;2023-05-07T02:28:51;13.97;;;7.77;;
23449;SDS011;11897;45.438;12.128;2023-05-07T02:31:19;16.33;;;7.83;;
23449;SDS011;11897;45.438;12.128;2023-05-07T02:33:46;17.50;;;8.70;;
23449;SDS011;11897;45.438;12.128;2023-05-07T02:36:13;15.13;;;8.20;;
23449;SDS011;11897;45.438;12.128;2023-05-07T02:38:47;12.73;;;8.00;;
23449;SDS011;11897;45.438;12.128;2023-05-07T02:41:14;13.20;;;7.20;;
23449;SDS011;11897;45.438;12.128;2023-05-07T02:43:40;15.40;;;8.23;;
23449;SDS011;11897;45.438;12.128;2023-05-07T02:46:08;16.10;;;8.90;;
23449;SDS011;11897;45.438;12.128;2023-05-07T02:48:40;14.53;;;8.27;;
23449;SDS011;11897;45.438;12.128;2023-05-07T02:51:07;15.43;;;8.10;;
23449;SDS011;11897;45.438;12.128;2023-05-07T02:53:37;12.23;;;7.07;;
23449;SDS011;11897;45.438;12.128;2023-05-07T02:56:03;12.90;;;7.70;;
23449;SDS011;11897;45.438;12.128;2023-05-07T02:58:31;10.03;;;6.97;;
23449;SDS011;11897;45.438;12.128;2023-05-07T03:01:00;20.10;;;8.50;;
23449;SDS011;11897;45.438;12.128;2023-05-07T03:03:37;12.13;;;7.50;;
23449;SDS011;11897;45.438;12.128;2023-05-07T03:06:05;12.00;;;7.27;;
23449;SDS011;11897;45.438;12.128;2023-05-07T03:08:32;13.67;;;7.80;;
23449;SDS011;11897;45.438;12.128;2023-05-07T03:10:59;12.63;;;7.20;;
23449;SDS011;11897;45.438;12.128;2023-05-07T03:13:26;12.00;;;7.00;;
23449;SDS011;11897;45.438;12.128;2023-05-07T03:15:52;15.27;;;7.70;;
23449;SDS011;11897;45.438;12.128;2023-05-07T03:18:19;12.53;;;6.07;;
23449;SDS011;11897;45.438;12.128;2023-05-07T03:20:46;9.30;;;6.23;;
23449;SDS011;11897;45.438;12.128;2023-05-07T03:23:14;9.73;;;6.23;;
23449;SDS011;11897;45.438;12.128;2023-05-07T03:25:40;12.77;;;6.90;;
23449;SDS011;11897;45.438;12.128;2023-05-07T03:28:07;12.07;;;6.07;;
23449;SDS011;11897;45.438;12.128;2023-05-07T03:30:43;13.03;;;6.07;;
23449;SDS011;11897;45.438;12.128;2023-05-07T03:33:09;12.27;;;6.03;;
23449;SDS011;11897;45.438;12.128;2023-05-07T03:35:37;10.93;;;6.20;;
23449;SDS011;11897;45.438;12.128;2023-05-07T03:38:04;10.27;;;6.20;;
23449;SDS011;11897;45.438;12.128;2023-05-07T03:40:35;11.23;;;6.47;;
23449;SDS011;11897;45.438;12.128;2023-05-07T03:43:03;8.60;;;5.73;;
23449;SDS011;11897;45.438;12.128;2023-05-07T03:45:31;10.30;;;5.83;;
23449;SDS011;11897;45.438;12.128;2023-05-07T03:48:07;10.57;;;5.97;;
23449;SDS011;11897;45.438;12.128;2023-05-07T03:50:34;9.20;;;6.47;;
23449;SDS011;11897;45.438;12.128;2023-05-07T03:53:01;10.97;;;6.13;;
23449;SDS011;11897;45.438;12.128;2023-05-07T03:55:29;10.33;;;6.43;;
23449;SDS011;11897;45.438;12.128;2023-05-07T03:58:00;8.60;;;5.70;;
23449;SDS011;11897;45.438;12.128;2023-05-07T04:00:27;11.50;;;6.10;;
23449;SDS011;11897;45.438;12.128;2023-05-07T04:02:58;8.03;;;5.33;;
23449;SDS011;11897;45.438;12.128;2023-05-07T04:05:29;7.83;;;5.43;;
23449;SDS011;11897;45.438;12.128;2023-05-07T04:08:00;8.07;;;5.53;;
23449;SDS011;11897;45.438;12.128;2023-05-07T04:10:34;12.40;;;6.97;;
23449;SDS011;11897;45.438;12.128;2023-05-07T04:13:07;11.77;;;6.73;;
23449;SDS011;11897;45.438;12.128;2023-05-07T04:15:35;10.97;;;6.10;;
23449;SDS011;11897;45.438;12.128;2023-05-07T04:18:03;9.93;;;5.97;;
23449;SDS011;11897;45.438;12.128;2023-05-07T04:20:30;14.77;;;7.23;;
23449;SDS011;11897;45.438;12.128;2023-05-07T04:23:02;9.73;;;6.80;;
23449;SDS011;11897;45.438;12.128;2023-05-07T04:25:30;11.20;;;6.70;;
23449;SDS011;11897;45.438;12.128;2023-05-07T04:28:04;11.80;;;6.90;;
23449;SDS011;11897;45.438;12.128;2023-05-07T04:30:33;9.47;;;5.87;;
23449;SDS011;11897;45.438;12.128;2023-05-07T04:33:02;12.10;;;7.03;;
23449;SDS011;11897;45.438;12.128;2023-05-07T04:35:30;12.27;;;6.80;;
23449;SDS011;11897;45.438;12.128;2023-05-07T04:37:58;11.77;;;6.20;;
23449;SDS011;11897;45.438;12.128;2023-05-07T04:40:24;9.80;;;6.47;;
23449;SDS011;11897;45.438;12.128;2023-05-07T04:42:51;12.43;;;7.17;;
23449;SDS011;11897;45.438;12.128;2023-05-07T04:45:18;14.70;;;7.30;;
23449;SDS011;11897;45.438;12.128;2023-05-07T04:47:48;13.70;;;7.67;;
23449;SDS011;11897;45.438;12.128;2023-05-07T04:50:15;11.33;;;6.40;;
23449;SDS011;11897;45.438;12.128;2023-05-07T04:52:43;11.53;;;7.13;;
23449;SDS011;11897;45.438;12.128;2023-05-07T04:55:10;10.07;;;6.97;;
23449;SDS011;11897;45.438;12.128;2023-05-07T04:57:40;10.77;;;6.73;;
23449;SDS011;11897;45.438;12.128;2023-05-07T05:00:09;14.57;;;8.20;;
23449;SDS011;11897;45.438;12.128;2023-05-07T05:02:38;13.73;;;7.10;;
23449;SDS011;11897;45.438;12.128;2023-05-07T05:05:06;16.83;;;8.50;;
23449;SDS011;11897;45.438;12.128;2023-05-07T05:07:33;17.53;;;8.57;;
23449;SDS011;11897;45.438;12.128;2023-05-07T05:10:01;17.17;;;9.63;;
23449;SDS011;11897;45.438;12.128;2023-05-07T05:12:30;18.53;;;8.73;;
23449;SDS011;11897;45.438;12.128;2023-05-07T05:14:58;14.77;;;8.80;;
23449;SDS011;11897;45.438;12.128;2023-05-07T05:17:25;15.53;;;9.40;;
23449;SDS011;11897;45.438;12.128;2023-05-07T05:19:51;13.43;;;8.23;;
23449;SDS011;11897;45.438;12.128;2023-05-07T05:22:20;15.50;;;9.37;;
23449;SDS011;11897;45.438;12.128;2023-05-07T05:24:47;17.60;;;7.87;;
23449;SDS011;11897;45.438;12.128;2023-05-07T05:27:13;16.63;;;7.43;;
23449;SDS011;11897;45.438;12.128;2023-05-07T05:29:40;12.53;;;8.30;;
23449;SDS011;11897;45.438;12.128;2023-05-07T05:32:07;12.90;;;8.37;;
23449;SDS011;11897;45.438;12.128;2023-05-07T05:34:34;14.07;;;8.77;;
23449;SDS011;11897;45.438;12.128;2023-05-07T05:37:03;13.43;;;8.57;;
23449;SDS011;11897;45.438;12.128;2023-05-07T05:39:31;15.43;;;8.63;;
23449;SDS011;11897;45.438;12.128;2023-05-07T05:41:58;17.23;;;9.30;;
23449;SDS011;11897;45.438;12.128;2023-05-07T05:44:25;20.17;;;9.80;;
23449;SDS011;11897;45.438;12.128;2023-05-07T05:46:52;16.73;;;9.43;;
23449;SDS011;11897;45.438;12.128;2023-05-07T05:49:20;16.67;;;9.17;;
23449;SDS011;11897;45.438;12.128;2023-05-07T05:51:48;15.83;;;8.57;;
23449;SDS011;11897;45.438;12.128;2023-05-07T05:54:15;13.00;;;8.33;;
23449;SDS011;11897;45.438;12.128;2023-05-07T05:56:44;16.70;;;9.67;;
23449;SDS011;11897;45.438;12.128;2023-05-07T05:59:12;17.40;;;9.63;;
23449;SDS011;11897;45.438;12.128;2023-05-07T06:01:39;16.80;;;9.67;;
23449;SDS011;11897;45.438;12.128;2023-05-07T06:04:06;19.63;;;8.93;;
23449;SDS011;11897;45.438;12.128;2023-05-07T06:06:33;18.87;;;9.80;;
23449;SDS011;11897;45.438;12.128;2023-05-07T06:09:01;17.47;;;10.00;;
23449;SDS011;11897;45.438;12.128;2023-05-07T06:11:35;18.33;;;9.13;;
23449;SDS011;11897;45.438;12.128;2023-05-07T06:14:06;14.37;;;9.47;;
23449;SDS011;11897;45.438;12.128;2023-05-07T06:16:34;14.77;;;9.20;;
23449;SDS011;11897;45.438;12.128;2023-05-07T06:19:04;13.07;;;9.03;;
23449;SDS011;11897;45.438;12.128;2023-05-07T06:21:31;15.97;;;9.83;;
23449;SDS011;11897;45.438;12.128;2023-05-07T06:23:57;15.27;;;10.17;;
23449;SDS011;11897;45.438;12.128;2023-05-07T06:26:24;14.30;;;8.77;;
23449;SDS011;11897;45.438;12.128;2023-05-07T06:28:51;14.43;;;9.40;;
23449;SDS011;11897;45.438;12.128;2023-05-07T06:31:19;15.80;;;9.93;;
23449;SDS011;11897;45.438;12.128;2023-05-07T06:33:54;10.77;;;7.90;;
23449;SDS011;11897;45.438;12.128;2023-05-07T06:36:24;15.70;;;8.30;;
23449;SDS011;11897;45.438;12.128;2023-05-07T06:38:54;12.30;;;7.57;;
23449;SDS011;11897;45.438;12.128;2023-05-07T06:41:21;15.47;;;8.27;;
23449;SDS011;11897;45.438;12.128;2023-05-07T06:43:50;12.83;;;8.90;;
23449;SDS011;11897;45.438;12.128;2023-05-07T06:46:32;10.73;;;7.87;;
23449;SDS011;11897;45.438;12.128;2023-05-07T06:48:59;12.17;;;7.37;;
23449;SDS011;11897;45.438;12.128;2023-05-07T06:51:27;15.70;;;8.50;;
23449;SDS011;11897;45.438;12.128;2023-05-07T06:53:54;13.23;;;8.27;;
23449;SDS011;11897;45.438;12.128;2023-05-07T06:56:21;13.98;;;7.70;;
23449;SDS011;11897;45.438;12.128;2023-05-07T06:58:48;11.38;;;7.70;;
23449;SDS011;11897;45.438;12.128;2023-05-07T07:01:15;13.10;;;7.38;;
23449;SDS011;11897;45.438;12.128;2023-05-07T07:03:44;11.48;;;7.15;;
23449;SDS011;11897;45.438;12.128;2023-05-07T07:06:11;10.65;;;7.15;;
23449;SDS011;11897;45.438;12.128;2023-05-07T07:08:38;11.23;;;7.18;;
23449;SDS011;11897;45.438;12.128;2023-05-07T07:11:05;9.02;;;6.88;;
23449;SDS011;11897;45.438;12.128;2023-05-07T07:13:32;8.90;;;6.63;;
23449;SDS011;11897;45.438;12.128;2023-05-07T07:15:59;8.90;;;6.63;;
23449;SDS011;11897;45.438;12.128;2023-05-07T07:18:26;8.45;;;6.15;;
23449;SDS011;11897;45.438;12.128;2023-05-07T07:20:55;9.57;;;7.05;;
23449;SDS011;11897;45.438;12.128;2023-05-07T07:23:21;11.50;;;7.00;;
23449;SDS011;11897;45.438;12.128;2023-05-07T07:25:48;10.65;;;7.70;;
23449;SDS011;11897;45.438;12.128;2023-05-07T07:28:16;9.00;;;7.22;;
23449;SDS011;11897;45.438;12.128;2023-05-07T07:30:45;9.45;;;7.30;;
23449;SDS011;11897;45.438;12.128;2023-05-07T07:33:12;9.25;;;6.60;;
23449;SDS011;11897;45.438;12.128;2023-05-07T07:35:40;8.02;;;6.68;;
23449;SDS011;11897;45.438;12.128;2023-05-07T07:38:11;12.23;;;7.82;;
23449;SDS011;11897;45.438;12.128;2023-05-07T07:40:38;12.35;;;7.60;;
23449;SDS011;11897;45.438;12.128;2023-05-07T07:43:07;11.98;;;7.72;;
23449;SDS011;11897;45.438;12.128;2023-05-07T07:45:34;10.20;;;6.97;;
23449;SDS011;11897;45.438;12.128;2023-05-07T07:48:01;10.23;;;7.55;;
23449;SDS011;11897;45.438;12.128;2023-05-07T07:50:30;9.25;;;6.60;;
23449;SDS011;11897;45.438;12.128;2023-05-07T07:52:57;10.35;;;6.68;;
23449;SDS011;11897;45.438;12.128;2023-05-07T07:55:25;8.23;;;6.85;;
23449;SDS011;11897;45.438;12.128;2023-05-07T07:57:53;8.85;;;5.68;;
23449;SDS011;11897;45.438;12.128;2023-05-07T08:00:21;9.98;;;5.80;;
23449;SDS011;11897;45.438;12.128;2023-05-07T08:02:52;10.18;;;6.35;;
23449;SDS011;11897;45.438;12.128;2023-05-07T08:05:24;10.38;;;6.25;;
23449;SDS011;11897;45.438;12.128;2023-05-07T08:07:52;8.32;;;5.85;;
23449;SDS011;11897;45.438;12.128;2023-05-07T08:10:25;8.20;;;6.40;;
23449;SDS011;11897;45.438;12.128;2023-05-07T08:12:58;11.45;;;6.45;;
23449;SDS011;11897;45.438;12.128;2023-05-07T08:15:25;11.70;;;7.10;;
23449;SDS011;11897;45.438;12.128;2023-05-07T08:17:52;8.05;;;6.32;;
23449;SDS011;11897;45.438;12.128;2023-05-07T08:20:19;12.88;;;5.68;;
23449;SDS011;11897;45.438;12.128;2023-05-07T08:22:45;6.43;;;5.22;;
23449;SDS011;11897;45.438;12.128;2023-05-07T08:25:12;12.05;;;5.97;;
23449;SDS011;11897;45.438;12.128;2023-05-07T08:27:40;7.80;;;5.35;;
23449;SDS011;11897;45.438;12.128;2023-05-07T08:30:08;9.18;;;5.40;;
23449;SDS011;11897;45.438;12.128;2023-05-07T08:32:35;8.57;;;5.95;;
23449;SDS011;11897;45.438;12.128;2023-05-07T08:35:02;6.75;;;4.72;;
23449;SDS011;11897;45.438;12.128;2023-05-07T08:37:28;6.63;;;4.93;;
23449;SDS011;11897;45.438;12.128;2023-05-07T08:39:57;8.02;;;4.60;;
23449;SDS011;11897;45.438;12.128;2023-05-07T08:42:29;7.05;;;5.35;;
23449;SDS011;11897;45.438;12.128;2023-05-07T08:44:59;7.60;;;4.97;;
23449;SDS011;11897;45.438;12.128;2023-05-07T08:47:34;7.05;;;4.70;;
23449;SDS011;11897;45.438;12.128;2023-05-07T08:50:09;7.70;;;4.38;;
23449;SDS011;11897;45.438;12.128;2023-05-07T08:52:37;5.45;;;3.83;;
23449;SDS011;11897;45.438;12.128;2023-05-07T08:55:04;5.55;;;3.90;;
23449;SDS011;11897;45.438;12.128;2023-05-07T08:57:35;6.72;;;4.25;;
23449;SDS011;11897;45.438;12.128;2023-05-07T09:00:04;5.68;;;3.60;;
23449;SDS011;11897;45.438;12.128;2023-05-07T09:02:33;8.30;;;3.67;;
23449;SDS011;11897;45.438;12.128;2023-05-07T09:05:01;6.53;;;3.72;;
23449;SDS011;11897;45.438;12.128;2023-05-07T09:07:28;5.22;;;3.97;;
23449;SDS011;11897;45.438;12.128;2023-05-07T09:09:58;4.40;;;2.60;;
23449;SDS011;11897;45.438;12.128;2023-05-07T09:12:28;3.08;;;2.08;;
23449;SDS011;11897;45.438;12.128;2023-05-07T09:14:55;3.13;;;2.53;;
23449;SDS011;11897;45.438;12.128;2023-05-07T09:17:23;3.03;;;2.17;;
23449;SDS011;11897;45.438;12.128;2023-05-07T09:19:50;3.80;;;2.90;;
23449;SDS011;11897;45.438;12.128;2023-05-07T09:22:19;3.83;;;2.70;;
23449;SDS011;11897;45.438;12.128;2023-05-07T09:24:54;3.28;;;2.35;;
23449;SDS011;11897;45.438;12.128;2023-05-07T09:27:24;3.22;;;2.55;;
23449;SDS011;11897;45.438;12.128;2023-05-07T09:29:52;4.65;;;3.10;;
23449;SDS011;11897;45.438;12.128;2023-05-07T09:32:19;4.15;;;2.85;;
23449;SDS011;11897;45.438;12.128;2023-05-07T09:34:47;4.00;;;2.97;;
23449;SDS011;11897;45.438;12.128;2023-05-07T09:37:17;6.63;;;2.67;;
23449;SDS011;11897;45.438;12.128;2023-05-07T09:39:46;3.13;;;2.58;;
23449;SDS011;11897;45.438;12.128;2023-05-07T09:42:15;2.78;;;2.55;;
23449;SDS011;11897;45.438;12.128;2023-05-07T09:44:43;3.33;;;2.40;;
23449;SDS011;11897;45.438;12.128;2023-05-07T09:47:14;2.60;;;2.22;;
23449;SDS011;11897;45.438;12.128;2023-05-07T09:49:46;3.80;;;2.35;;
23449;SDS011;11897;45.438;12.128;2023-05-07T09:52:17;2.72;;;2.17;;
23449;SDS011;11897;45.438;12.128;2023-05-07T09:54:47;4.32;;;2.60;;
23449;SDS011;11897;45.438;12.128;2023-05-07T09:57:17;6.53;;;2.75;;
23449;SDS011;11897;45.438;12.128;2023-05-07T09:59:48;6.43;;;2.30;;
23449;SDS011;11897;45.438;12.128;2023-05-07T10:02:17;2.80;;;2.10;;
23449;SDS011;11897;45.438;12.128;2023-05-07T10:04:49;2.25;;;2.03;;
23449;SDS011;11897;45.438;12.128;2023-05-07T10:07:22;2.63;;;2.00;;
23449;SDS011;11897;45.438;12.128;2023-05-07T10:09:53;2.10;;;1.90;;
23449;SDS011;11897;45.438;12.128;2023-05-07T10:12:30;2.38;;;2.05;;
23449;SDS011;11897;45.438;12.128;2023-05-07T10:15:05;3.80;;;2.22;;
23449;SDS011;11897;45.438;12.128;2023-05-07T10:17:34;2.35;;;1.90;;
23449;SDS011;11897;45.438;12.128;2023-05-07T10:20:01;5.70;;;2.58;;
23449;SDS011;11897;45.438;12.128;2023-05-07T10:22:32;2.67;;;2.10;;
23449;SDS011;11897;45.438;12.128;2023-05-07T10:24:59;2.75;;;2.05;;
23449;SDS011;11897;45.438;12.128;2023-05-07T10:27:29;6.30;;;2.88;;
23449;SDS011;11897;45.438;12.128;2023-05-07T10:29:58;2.30;;;2.10;;
23449;SDS011;11897;45.438;12.128;2023-05-07T10:32:35;4.90;;;2.92;;
23449;SDS011;11897;45.438;12.128;2023-05-07T10:35:06;2.75;;;2.28;;
23449;SDS011;11897;45.438;12.128;2023-05-07T10:37:34;4.60;;;2.83;;
23449;SDS011;11897;45.438;12.128;2023-05-07T10:40:01;3.95;;;2.72;;
23449;SDS011;11897;45.438;12.128;2023-05-07T10:42:30;3.58;;;2.30;;
23449;SDS011;11897;45.438;12.128;2023-05-07T10:44:57;3.63;;;2.33;;
23449;SDS011;11897;45.438;12.128;2023-05-07T10:47:53;3.50;;;1.90;;
23449;SDS011;11897;45.438;12.128;2023-05-07T10:50:32;3.97;;;2.05;;
23449;SDS011;11897;45.438;12.128;2023-05-07T10:53:22;2.47;;;1.92;;
23449;SDS011;11897;45.438;12.128;2023-05-07T10:58:54;5.28;;;1.60;;
23449;SDS011;11897;45.438;12.128;2023-05-07T11:04:20;2.47;;;1.80;;
23449;SDS011;11897;45.438;12.128;2023-05-07T11:07:23;3.80;;;1.92;;
23449;SDS011;11897;45.438;12.128;2023-05-07T11:10:01;3.47;;;2.08;;
23449;SDS011;11897;45.438;12.128;2023-05-07T11:12:52;1.95;;;1.70;;
23449;SDS011;11897;45.438;12.128;2023-05-07T11:18:22;1.85;;;1.60;;
23449;SDS011;11897;45.438;12.128;2023-05-07T11:20:54;2.13;;;1.90;;
23449;SDS011;11897;45.438;12.128;2023-05-07T11:23:56;1.73;;;1.55;;
23449;SDS011;11897;45.438;12.128;2023-05-07T11:26:44;2.38;;;1.63;;
23449;SDS011;11897;45.438;12.128;2023-05-07T11:29:12;1.80;;;1.30;;
23449;SDS011;11897;45.438;12.128;2023-05-07T11:31:40;1.70;;;1.40;;
23449;SDS011;11897;45.438;12.128;2023-05-07T11:34:07;2.65;;;1.50;;
23449;SDS011;11897;45.438;12.128;2023-05-07T11:36:34;1.50;;;1.35;;
23449;SDS011;11897;45.438;12.128;2023-05-07T11:39:04;2.05;;;1.20;;
23449;SDS011;11897;45.438;12.128;2023-05-07T11:41:34;1.20;;;1.10;;
23449;SDS011;11897;45.438;12.128;2023-05-07T11:44:03;5.07;;;1.00;;
23449;SDS011;11897;45.438;12.128;2023-05-07T11:46:33;1.48;;;1.38;;
23449;SDS011;11897;45.438;12.128;2023-05-07T11:49:01;1.52;;;1.20;;
23449;SDS011;11897;45.438;12.128;2023-05-07T11:51:27;1.40;;;1.13;;
23449;SDS011;11897;45.438;12.128;2023-05-07T11:53:54;3.05;;;1.50;;
23449;SDS011;11897;45.438;12.128;2023-05-07T11:56:21;1.65;;;1.50;;
23449;SDS011;11897;45.438;12.128;2023-05-07T11:58:48;1.15;;;1.05;;
23449;SDS011;11897;45.438;12.128;2023-05-07T12:01:21;1.10;;;1.00;;
23449;SDS011;11897;45.438;12.128;2023-05-07T12:03:48;3.53;;;1.27;;
23449;SDS011;11897;45.438;12.128;2023-05-07T12:06:15;2.97;;;1.30;;
23449;SDS011;11897;45.438;12.128;2023-05-07T12:08:42;1.25;;;1.15;;
23449;SDS011;11897;45.438;12.128;2023-05-07T12:11:09;2.20;;;1.55;;
23449;SDS011;11897;45.438;12.128;2023-05-07T12:13:37;1.58;;;1.45;;
23449;SDS011;11897;45.438;12.128;2023-05-07T12:16:05;2.80;;;1.88;;
23449;SDS011;11897;45.438;12.128;2023-05-07T12:18:34;6.30;;;3.65;;
23449;SDS011;11897;45.438;12.128;2023-05-07T12:21:01;7.85;;;2.08;;
23449;SDS011;11897;45.438;12.128;2023-05-07T12:23:28;4.07;;;2.80;;
23449;SDS011;11897;45.438;12.128;2023-05-07T12:25:55;5.70;;;3.60;;
23449;SDS011;11897;45.438;12.128;2023-05-07T12:28:22;6.28;;;3.55;;
23449;SDS011;11897;45.438;12.128;2023-05-07T12:30:49;7.32;;;3.92;;
23449;SDS011;11897;45.438;12.128;2023-05-07T12:33:17;4.45;;;2.10;;
23449;SDS011;11897;45.438;12.128;2023-05-07T12:35:47;2.75;;;1.50;;
23449;SDS011;11897;45.438;12.128;2023-05-07T12:38:15;3.55;;;2.15;;
23449;SDS011;11897;45.438;12.128;2023-05-07T12:40:43;3.42;;;2.10;;
23449;SDS011;11897;45.438;12.128;2023-05-07T12:43:14;5.28;;;2.05;;
23449;SDS011;11897;45.438;12.128;2023-05-07T12:45:41;0.90;;;0.90;;
23449;SDS011;11897;45.438;12.128;2023-05-07T12:48:09;1.80;;;1.10;;
23449;SDS011;11897;45.438;12.128;2023-05-07T12:50:37;2.25;;;1.45;;
23449;SDS011;11897;45.438;12.128;2023-05-07T12:53:05;2.60;;;1.48;;
23449;SDS011;11897;45.438;12.128;2023-05-07T12:55:39;3.45;;;1.92;;
23449;SDS011;11897;45.438;12.128;2023-05-07T12:58:07;2.60;;;1.90;;
23449;SDS011;11897;45.438;12.128;2023-05-07T13:00:34;2.53;;;1.67;;
23449;SDS011;11897;45.438;12.128;2023-05-07T13:03:01;3.17;;;1.40;;
23449;SDS011;11897;45.438;12.128;2023-05-07T13:05:27;3.10;;;1.33;;
23449;SDS011;11897;45.438;12.128;2023-05-07T13:07:54;2.42;;;1.10;;
23449;SDS011;11897;45.438;12.128;2023-05-07T13:10:23;1.05;;;0.95;;
23449;SDS011;11897;45.438;12.128;2023-05-07T13:12:50;1.45;;;1.20;;
23449;SDS011;11897;45.438;12.128;2023-05-07T13:15:17;1.33;;;1.00;;
23449;SDS011;11897;45.438;12.128;2023-05-07T13:17:43;1.38;;;1.27;;
23449;SDS011;11897;45.438;12.128;2023-05-07T13:20:10;4.15;;;1.40;;
23449;SDS011;11897;45.438;12.128;2023-05-07T13:22:38;1.48;;;1.38;;
23449;SDS011;11897;45.438;12.128;2023-05-07T13:25:05;2.35;;;1.13;;
23449;SDS011;11897;45.438;12.128;2023-05-07T13:27:33;2.13;;;1.92;;
23449;SDS011;11897;45.438;12.128;2023-05-07T13:30:02;1.77;;;1.40;;
23449;SDS011;11897;45.438;12.128;2023-05-07T13:32:30;1.23;;;1.13;;
23449;SDS011;11897;45.438;12.128;2023-05-07T13:34:57;2.35;;;1.33;;
23449;SDS011;11897;45.438;12.128;2023-05-07T13:37:24;2.70;;;1.60;;
23449;SDS011;11897;45.438;12.128;2023-05-07T13:39:50;1.02;;;0.98;;
23449;SDS011;11897;45.438;12.128;2023-05-07T13:42:17;3.03;;;1.38;;
23449;SDS011;11897;45.438;12.128;2023-05-07T13:44:45;1.23;;;1.10;;
23449;SDS011;11897;45.438;12.128;2023-05-07T13:47:12;1.20;;;1.10;;
23449;SDS011;11897;45.438;12.128;2023-05-07T13:49:38;1.77;;;1.42;;
23449;SDS011;11897;45.438;12.128;2023-05-07T13:52:05;1.10;;;1.00;;
23449;SDS011;11897;45.438;12.128;2023-05-07T13:54:32;1.33;;;1.23;;
23449;SDS011;11897;45.438;12.128;2023-05-07T13:56:59;4.32;;;1.10;;
23449;SDS011;11897;45.438;12.128;2023-05-07T13:59:25;2.63;;;1.27;;
23449;SDS011;11897;45.438;12.128;2023-05-07T14:01:53;1.33;;;1.10;;
23449;SDS011;11897;45.438;12.128;2023-05-07T14:04:21;4.88;;;1.30;;
23449;SDS011;11897;45.438;12.128;2023-05-07T14:06:49;3.65;;;1.35;;
23449;SDS011;11897;45.438;12.128;2023-05-07T14:09:17;1.55;;;1.10;;
23449;SDS011;11897;45.438;12.128;2023-05-07T14:11:45;1.30;;;1.10;;
23449;SDS011;11897;45.438;12.128;2023-05-07T14:14:13;1.52;;;1.10;;
23449;SDS011;11897;45.438;12.128;2023-05-07T14:16:39;1.35;;;1.15;;
23449;SDS011;11897;45.438;12.128;2023-05-07T14:19:07;1.83;;;1.65;;
23449;SDS011;11897;45.438;12.128;2023-05-07T14:21:34;2.72;;;1.17;;
23449;SDS011;11897;45.438;12.128;2023-05-07T14:24:01;1.77;;;1.02;;
23449;SDS011;11897;45.438;12.128;2023-05-07T14:26:27;1.25;;;1.15;;
23449;SDS011;11897;45.438;12.128;2023-05-07T14:28:54;1.40;;;1.25;;
23449;SDS011;11897;45.438;12.128;2023-05-07T14:31:23;1.80;;;1.23;;
23449;SDS011;11897;45.438;12.128;2023-05-07T14:33:50;1.20;;;1.10;;
23449;SDS011;11897;45.438;12.128;2023-05-07T14:36:18;1.45;;;1.10;;
23449;SDS011;11897;45.438;12.128;2023-05-07T14:38:48;1.15;;;0.90;;
23449;SDS011;11897;45.438;12.128;2023-05-07T14:41:15;1.17;;;1.02;;
23449;SDS011;11897;45.438;12.128;2023-05-07T14:43:42;1.58;;;1.20;;
23449;SDS011;11897;45.438;12.128;2023-05-07T14:46:15;1.05;;;0.95;;